Terminal Aerodrome Forecast
Issued by NWS

Home | Current Version | Previous Version | Text Only | Print | Product List | Glossary On
Versions: 1 2 3 4 5 6 7 8 9 10 11 12 13 14 15 16 17
000
FTUS43 KLSX 191200 AAA
TAFUIN
TAF AMD
KUIN 191207Z 1912/2012 20005KT P6SM VCTS SCT030CB BKN200
     FM191300 25008KT 5SM -TSRA BKN030CB
      TEMPO 1913/1915 25018G28KT 3SM TSRA OVC030CB
     FM191600 23007KT P6SM SCT030 BKN120
     FM200100 VRB03KT P6SM SCT250=

USA.gov is the U.S. government's official web portal to all federal, state and local government web resources and services.